sensor_id;sensor_type;location;lat;lon;timestamp;pressure;altitude;pressure_sealevel;temperature;humidity
7774;BME280;3931;42.260;23.116;2022-12-07T00:00:30;95469.19;;;16.08;61.64
7774;BME280;3931;42.260;23.116;2022-12-07T00:02:57;95460.84;;;15.98;62.46
7774;BME280;3931;42.260;23.116;2022-12-07T00:05:23;95456.19;;;16.04;62.28
7774;BME280;3931;42.260;23.116;2022-12-07T00:07:49;95461.84;;;16.19;62.30
7774;BME280;3931;42.260;23.116;2022-12-07T00:10:15;95468.84;;;16.15;61.97
7774;BME280;3931;42.260;23.116;2022-12-07T00:12:41;95466.13;;;15.64;63.31
7774;BME280;3931;42.260;23.116;2022-12-07T00:15:08;95474.31;;;15.67;62.61
7774;BME280;3931;42.260;23.116;2022-12-07T00:17:34;95468.50;;;16.22;60.12
7774;BME280;3931;42.260;23.116;2022-12-07T00:20:01;95470.44;;;16.07;60.01
7774;BME280;3931;42.260;23.116;2022-12-07T00:22:28;95476.03;;;16.07;60.86
7774;BME280;3931;42.260;23.116;2022-12-07T00:24:54;95456.53;;;16.21;59.98
7774;BME280;3931;42.260;23.116;2022-12-07T00:27:20;95471.97;;;15.75;62.69
7774;BME280;3931;42.260;23.116;2022-12-07T00:29:46;95471.91;;;15.93;62.61
7774;BME280;3931;42.260;23.116;2022-12-07T00:32:12;95473.53;;;15.67;62.78
7774;BME280;3931;42.260;23.116;2022-12-07T00:34:38;95466.97;;;16.12;62.27
7774;BME280;3931;42.260;23.116;2022-12-07T00:37:05;95472.59;;;16.02;62.63
7774;BME280;3931;42.260;23.116;2022-12-07T00:39:31;95476.38;;;15.58;63.21
7774;BME280;3931;42.260;23.116;2022-12-07T00:41:57;95473.69;;;16.05;62.54
7774;BME280;3931;42.260;23.116;2022-12-07T00:44:23;95471.66;;;16.05;62.18
7774;BME280;3931;42.260;23.116;2022-12-07T00:46:49;95463.47;;;16.02;62.89
7774;BME280;3931;42.260;23.116;2022-12-07T00:49:16;95457.91;;;16.02;62.04
7774;BME280;3931;42.260;23.116;2022-12-07T00:51:42;95459.56;;;16.32;61.36
7774;BME280;3931;42.260;23.116;2022-12-07T00:54:08;95460.41;;;16.24;61.14
7774;BME280;3931;42.260;23.116;2022-12-07T00:56:34;95458.78;;;16.08;62.45
7774;BME280;3931;42.260;23.116;2022-12-07T00:59:02;95463.69;;;16.22;61.21
7774;BME280;3931;42.260;23.116;2022-12-07T01:01:31;95469.84;;;16.26;61.19
7774;BME280;3931;42.260;23.116;2022-12-07T01:03:57;95461.28;;;16.30;60.79
7774;BME280;3931;42.260;23.116;2022-12-07T01:06:25;95466.81;;;16.15;61.48
7774;BME280;3931;42.260;23.116;2022-12-07T01:08:51;95460.13;;;16.22;61.39
7774;BME280;3931;42.260;23.116;2022-12-07T01:11:20;95463.25;;;16.15;61.53
7774;BME280;3931;42.260;23.116;2022-12-07T01:13:47;95465.44;;;16.11;61.46
7774;BME280;3931;42.260;23.116;2022-12-07T01:16:16;95461.66;;;16.23;61.66
7774;BME280;3931;42.260;23.116;2022-12-07T01:18:45;95455.88;;;16.02;61.62
7774;BME280;3931;42.260;23.116;2022-12-07T01:21:13;95449.47;;;16.11;61.50
7774;BME280;3931;42.260;23.116;2022-12-07T01:23:40;95449.81;;;16.04;61.73
7774;BME280;3931;42.260;23.116;2022-12-07T01:26:09;95450.19;;;16.21;61.71
7774;BME280;3931;42.260;23.116;2022-12-07T01:28:37;95434.69;;;16.20;61.20
7774;BME280;3931;42.260;23.116;2022-12-07T01:31:05;95441.56;;;16.10;62.11
7774;BME280;3931;42.260;23.116;2022-12-07T01:33:33;95453.81;;;16.12;61.97
7774;BME280;3931;42.260;23.116;2022-12-07T01:36:03;95448.31;;;16.27;61.49
7774;BME280;3931;42.260;23.116;2022-12-07T01:38:30;95456.84;;;16.23;61.38
7774;BME280;3931;42.260;23.116;2022-12-07T01:40:56;95447.34;;;16.30;61.29
7774;BME280;3931;42.260;23.116;2022-12-07T01:43:24;95440.28;;;16.43;60.71
7774;BME280;3931;42.260;23.116;2022-12-07T01:45:52;95439.31;;;16.23;61.05
7774;BME280;3931;42.260;23.116;2022-12-07T01:48:21;95431.13;;;15.95;62.49
7774;BME280;3931;42.260;23.116;2022-12-07T01:50:50;95429.75;;;16.38;60.76
7774;BME280;3931;42.260;23.116;2022-12-07T01:53:18;95434.66;;;16.52;60.50
7774;BME280;3931;42.260;23.116;2022-12-07T01:55:46;95430.31;;;16.51;60.79
7774;BME280;3931;42.260;23.116;2022-12-07T01:58:14;95420.75;;;16.67;59.77
7774;BME280;3931;42.260;23.116;2022-12-07T02:00:41;95428.03;;;16.41;60.76
7774;BME280;3931;42.260;23.116;2022-12-07T02:03:13;95424.38;;;16.49;60.58
7774;BME280;3931;42.260;23.116;2022-12-07T02:05:41;95420.56;;;15.99;62.37
7774;BME280;3931;42.260;23.116;2022-12-07T02:08:09;95413.66;;;16.10;62.50
7774;BME280;3931;42.260;23.116;2022-12-07T02:10:36;95414.38;;;16.19;62.00
7774;BME280;3931;42.260;23.116;2022-12-07T02:13:06;95422.63;;;16.14;62.06
7774;BME280;3931;42.260;23.116;2022-12-07T02:18:27;95406.59;;;16.23;62.05
7774;BME280;3931;42.260;23.116;2022-12-07T02:21:02;95417.22;;;16.34;61.40
7774;BME280;3931;42.260;23.116;2022-12-07T02:23:55;95405.00;;;16.08;62.42
7774;BME280;3931;42.260;23.116;2022-12-07T02:26:55;95406.94;;;16.16;61.97
7774;BME280;3931;42.260;23.116;2022-12-07T02:29:33;95404.88;;;16.26;61.97
7774;BME280;3931;42.260;23.116;2022-12-07T02:32:06;95411.56;;;16.43;61.48
7774;BME280;3931;42.260;23.116;2022-12-07T02:34:42;95405.53;;;16.44;61.39
7774;BME280;3931;42.260;23.116;2022-12-07T02:37:19;95401.53;;;16.36;61.71
7774;BME280;3931;42.260;23.116;2022-12-07T02:39:52;95407.72;;;16.40;60.96
7774;BME280;3931;42.260;23.116;2022-12-07T02:42:23;95400.38;;;16.04;62.33
7774;BME280;3931;42.260;23.116;2022-12-07T02:44:53;95395.44;;;15.99;63.12
7774;BME280;3931;42.260;23.116;2022-12-07T02:47:20;95392.53;;;16.18;62.61
7774;BME280;3931;42.260;23.116;2022-12-07T02:49:47;95398.75;;;16.13;62.27
7774;BME280;3931;42.260;23.116;2022-12-07T02:52:15;95400.13;;;16.17;62.46
7774;BME280;3931;42.260;23.116;2022-12-07T02:54:41;95402.50;;;16.10;62.44
7774;BME280;3931;42.260;23.116;2022-12-07T02:57:17;95396.63;;;16.08;62.98
7774;BME280;3931;42.260;23.116;2022-12-07T02:59:56;95399.88;;;16.30;61.91
7774;BME280;3931;42.260;23.116;2022-12-07T03:02:30;95394.41;;;16.35;61.99
7774;BME280;3931;42.260;23.116;2022-12-07T03:05:12;95395.84;;;16.31;62.00
7774;BME280;3931;42.260;23.116;2022-12-07T03:07:44;95394.66;;;15.99;62.21
7774;BME280;3931;42.260;23.116;2022-12-07T03:10:18;95400.88;;;15.94;62.62
7774;BME280;3931;42.260;23.116;2022-12-07T03:12:55;95398.66;;;15.74;62.89
7774;BME280;3931;42.260;23.116;2022-12-07T03:15:27;95399.56;;;15.80;63.06
7774;BME280;3931;42.260;23.116;2022-12-07T03:17:59;95398.28;;;16.14;62.15
7774;BME280;3931;42.260;23.116;2022-12-07T03:20:27;95405.31;;;15.77;62.16
7774;BME280;3931;42.260;23.116;2022-12-07T03:22:56;95396.03;;;16.03;62.51
7774;BME280;3931;42.260;23.116;2022-12-07T03:25:24;95410.50;;;15.60;63.63
7774;BME280;3931;42.260;23.116;2022-12-07T03:27:54;95401.56;;;16.13;62.50
7774;BME280;3931;42.260;23.116;2022-12-07T03:30:24;95397.38;;;15.84;63.84
7774;BME280;3931;42.260;23.116;2022-12-07T03:32:57;95394.91;;;16.10;62.33
7774;BME280;3931;42.260;23.116;2022-12-07T03:35:28;95386.72;;;15.74;64.35
7774;BME280;3931;42.260;23.116;2022-12-07T03:38:00;95389.22;;;16.04;63.91
7774;BME280;3931;42.260;23.116;2022-12-07T03:40:34;95382.56;;;16.02;63.50
7774;BME280;3931;42.260;23.116;2022-12-07T03:43:01;95388.72;;;16.30;62.79
7774;BME280;3931;42.260;23.116;2022-12-07T03:45:32;95383.25;;;16.35;61.43
7774;BME280;3931;42.260;23.116;2022-12-07T03:48:06;95387.06;;;15.99;62.56
7774;BME280;3931;42.260;23.116;2022-12-07T03:50:40;95383.53;;;16.14;62.09
7774;BME280;3931;42.260;23.116;2022-12-07T03:53:11;95385.94;;;16.06;62.91
7774;BME280;3931;42.260;23.116;2022-12-07T03:55:42;95382.72;;;15.98;62.33
7774;BME280;3931;42.260;23.116;2022-12-07T03:58:11;95382.78;;;16.13;62.21
7774;BME280;3931;42.260;23.116;2022-12-07T04:00:40;95380.50;;;16.02;62.54
7774;BME280;3931;42.260;23.116;2022-12-07T04:03:07;95381.06;;;15.92;62.79
7774;BME280;3931;42.260;23.116;2022-12-07T04:05:33;95370.97;;;15.94;63.00
7774;BME280;3931;42.260;23.116;2022-12-07T04:07:59;95382.50;;;16.11;62.19
7774;BME280;3931;42.260;23.116;2022-12-07T04:10:25;95378.69;;;16.23;61.76
7774;BME280;3931;42.260;23.116;2022-12-07T04:12:51;95377.63;;;15.97;62.70
7774;BME280;3931;42.260;23.116;2022-12-07T04:15:18;95388.03;;;16.20;61.80
7774;BME280;3931;42.260;23.116;2022-12-07T04:17:45;95384.13;;;16.41;61.03
7774;BME280;3931;42.260;23.116;2022-12-07T04:20:12;95378.28;;;16.16;61.78
7774;BME280;3931;42.260;23.116;2022-12-07T04:22:38;95374.06;;;16.20;62.13
7774;BME280;3931;42.260;23.116;2022-12-07T04:25:05;95377.25;;;16.28;61.65
7774;BME280;3931;42.260;23.116;2022-12-07T04:27:31;95372.31;;;16.23;61.38
7774;BME280;3931;42.260;23.116;2022-12-07T04:29:57;95379.34;;;15.94;62.51
7774;BME280;3931;42.260;23.116;2022-12-07T04:32:24;95378.44;;;16.12;62.07
7774;BME280;3931;42.260;23.116;2022-12-07T04:34:50;95383.19;;;15.97;62.47
7774;BME280;3931;42.260;23.116;2022-12-07T04:37:17;95376.72;;;16.15;61.93
7774;BME280;3931;42.260;23.116;2022-12-07T04:39:43;95381.72;;;16.11;62.15
7774;BME280;3931;42.260;23.116;2022-12-07T04:42:10;95387.25;;;16.20;61.56
7774;BME280;3931;42.260;23.116;2022-12-07T04:44:36;95387.31;;;16.11;61.87
7774;BME280;3931;42.260;23.116;2022-12-07T04:47:03;95392.47;;;16.27;60.81
7774;BME280;3931;42.260;23.116;2022-12-07T04:49:29;95389.47;;;15.83;62.07
7774;BME280;3931;42.260;23.116;2022-12-07T04:51:55;95393.81;;;15.84;62.25
7774;BME280;3931;42.260;23.116;2022-12-07T04:54:22;95397.78;;;15.68;62.81
7774;BME280;3931;42.260;23.116;2022-12-07T04:56:48;95394.72;;;15.90;62.08
7774;BME280;3931;42.260;23.116;2022-12-07T04:59:15;95387.91;;;15.91;61.93
7774;BME280;3931;42.260;23.116;2022-12-07T05:01:42;95397.84;;;15.83;62.18
7774;BME280;3931;42.260;23.116;2022-12-07T05:04:08;95390.38;;;15.89;62.03
7774;BME280;3931;42.260;23.116;2022-12-07T05:06:34;95394.13;;;15.86;61.87
7774;BME280;3931;42.260;23.116;2022-12-07T05:09:02;95392.28;;;16.07;61.28
7774;BME280;3931;42.260;23.116;2022-12-07T05:11:28;95390.28;;;15.74;62.59
7774;BME280;3931;42.260;23.116;2022-12-07T05:14:05;95397.56;;;15.48;63.86
7774;BME280;3931;42.260;23.116;2022-12-07T05:16:31;95387.94;;;15.49;64.05
7774;BME280;3931;42.260;23.116;2022-12-07T05:18:57;95396.16;;;15.76;63.09
7774;BME280;3931;42.260;23.116;2022-12-07T05:21:24;95391.47;;;15.82;62.90
7774;BME280;3931;42.260;23.116;2022-12-07T05:23:50;95390.69;;;15.91;61.92
7774;BME280;3931;42.260;23.116;2022-12-07T05:26:17;95394.22;;;15.91;62.00
7774;BME280;3931;42.260;23.116;2022-12-07T05:28:43;95399.13;;;16.05;61.51
7774;BME280;3931;42.260;23.116;2022-12-07T05:31:09;95397.88;;;16.07;61.50
7774;BME280;3931;42.260;23.116;2022-12-07T05:33:35;95387.28;;;15.87;62.46
7774;BME280;3931;42.260;23.116;2022-12-07T05:36:02;95393.03;;;15.83;62.27
7774;BME280;3931;42.260;23.116;2022-12-07T05:38:31;95392.69;;;16.14;61.64
7774;BME280;3931;42.260;23.116;2022-12-07T05:41:00;95393.91;;;16.22;61.54
7774;BME280;3931;42.260;23.116;2022-12-07T05:43:28;95393.81;;;16.08;61.66
7774;BME280;3931;42.260;23.116;2022-12-07T05:45:53;95390.25;;;16.07;61.71
7774;BME280;3931;42.260;23.116;2022-12-07T05:48:19;95395.84;;;16.31;61.05
7774;BME280;3931;42.260;23.116;2022-12-07T05:50:47;95396.06;;;16.42;60.87
7774;BME280;3931;42.260;23.116;2022-12-07T05:53:13;95393.06;;;16.31;61.00
7774;BME280;3931;42.260;23.116;2022-12-07T05:55:39;95385.81;;;16.24;61.15
7774;BME280;3931;42.260;23.116;2022-12-07T05:58:05;95392.78;;;16.43;60.81
7774;BME280;3931;42.260;23.116;2022-12-07T06:00:50;95387.53;;;16.22;60.82
7774;BME280;3931;42.260;23.116;2022-12-07T06:03:17;95394.84;;;16.19;61.49
7774;BME280;3931;42.260;23.116;2022-12-07T06:05:43;95399.44;;;15.75;62.79
7774;BME280;3931;42.260;23.116;2022-12-07T06:08:09;95401.19;;;16.20;61.89
7774;BME280;3931;42.260;23.116;2022-12-07T06:10:35;95398.00;;;16.36;60.64
7774;BME280;3931;42.260;23.116;2022-12-07T06:13:01;95398.81;;;16.03;62.05
7774;BME280;3931;42.260;23.116;2022-12-07T06:15:27;95393.22;;;15.80;62.75
7774;BME280;3931;42.260;23.116;2022-12-07T06:17:53;95393.22;;;16.03;61.75
7774;BME280;3931;42.260;23.116;2022-12-07T06:20:20;95391.63;;;16.12;61.48
7774;BME280;3931;42.260;23.116;2022-12-07T06:22:46;95394.16;;;16.00;61.36
7774;BME280;3931;42.260;23.116;2022-12-07T06:25:12;95394.47;;;15.79;62.27
7774;BME280;3931;42.260;23.116;2022-12-07T06:27:38;95398.31;;;15.81;61.81
7774;BME280;3931;42.260;23.116;2022-12-07T06:30:05;95393.53;;;16.05;61.21
7774;BME280;3931;42.260;23.116;2022-12-07T06:32:32;95394.91;;;15.86;61.27
7774;BME280;3931;42.260;23.116;2022-12-07T06:34:59;95391.53;;;16.06;60.76
7774;BME280;3931;42.260;23.116;2022-12-07T06:37:26;95395.56;;;16.29;60.38
7774;BME280;3931;42.260;23.116;2022-12-07T06:39:52;95398.69;;;16.45;59.78
7774;BME280;3931;42.260;23.116;2022-12-07T06:42:18;95395.38;;;16.32;59.27
7774;BME280;3931;42.260;23.116;2022-12-07T06:44:44;95398.81;;;16.03;60.36
7774;BME280;3931;42.260;23.116;2022-12-07T06:47:10;95404.69;;;16.05;61.33
7774;BME280;3931;42.260;23.116;2022-12-07T06:49:37;95407.00;;;16.31;60.29
7774;BME280;3931;42.260;23.116;2022-12-07T06:52:04;95403.63;;;16.50;59.77
7774;BME280;3931;42.260;23.116;2022-12-07T06:54:31;95415.38;;;16.54;59.05
7774;BME280;3931;42.260;23.116;2022-12-07T06:56:57;95414.31;;;16.52;59.78
7774;BME280;3931;42.260;23.116;2022-12-07T06:59:23;95414.25;;;16.61;59.41
7774;BME280;3931;42.260;23.116;2022-12-07T07:01:49;95413.97;;;16.35;61.25
7774;BME280;3931;42.260;23.116;2022-12-07T07:04:15;95403.16;;;16.28;60.79
7774;BME280;3931;42.260;23.116;2022-12-07T07:06:41;95406.00;;;16.81;59.19
7774;BME280;3931;42.260;23.116;2022-12-07T07:09:08;95404.41;;;16.89;59.10
7774;BME280;3931;42.260;23.116;2022-12-07T07:11:34;95413.00;;;18.28;57.05
7774;BME280;3931;42.260;23.116;2022-12-07T07:14:00;95405.06;;;19.58;52.80
7774;BME280;3931;42.260;23.116;2022-12-07T07:16:28;95401.97;;;19.88;51.02
7774;BME280;3931;42.260;23.116;2022-12-07T07:18:54;95400.75;;;20.90;48.76
7774;BME280;3931;42.260;23.116;2022-12-07T07:21:20;95405.44;;;22.37;46.83
7774;BME280;3931;42.260;23.116;2022-12-07T07:23:46;95393.22;;;24.09;43.78
7774;BME280;3931;42.260;23.116;2022-12-07T07:26:13;95393.03;;;24.55;42.60
7774;BME280;3931;42.260;23.116;2022-12-07T07:28:39;95390.94;;;24.80;41.11
7774;BME280;3931;42.260;23.116;2022-12-07T07:31:06;95388.31;;;24.15;42.80
7774;BME280;3931;42.260;23.116;2022-12-07T07:33:32;95387.66;;;23.98;42.81
7774;BME280;3931;42.260;23.116;2022-12-07T07:35:58;95387.13;;;24.77;41.93
7774;BME280;3931;42.260;23.116;2022-12-07T07:38:24;95382.66;;;24.39;41.85
7774;BME280;3931;42.260;23.116;2022-12-07T07:40:50;95384.00;;;24.32;42.37
7774;BME280;3931;42.260;23.116;2022-12-07T07:43:17;95390.88;;;23.48;42.57
7774;BME280;3931;42.260;23.116;2022-12-07T07:45:44;95385.81;;;23.41;43.37
7774;BME280;3931;42.260;23.116;2022-12-07T07:48:10;95386.59;;;22.89;44.19
7774;BME280;3931;42.260;23.116;2022-12-07T07:50:36;95386.22;;;22.41;44.93
7774;BME280;3931;42.260;23.116;2022-12-07T07:53:02;95384.00;;;22.06;45.61
7774;BME280;3931;42.260;23.116;2022-12-07T07:55:28;95393.19;;;22.12;45.65
7774;BME280;3931;42.260;23.116;2022-12-07T07:57:54;95396.28;;;22.20;45.76
7774;BME280;3931;42.260;23.116;2022-12-07T08:00:22;95392.59;;;23.91;43.89
7774;BME280;3931;42.260;23.116;2022-12-07T08:02:48;95387.81;;;24.83;41.37
7774;BME280;3931;42.260;23.116;2022-12-07T08:05:14;95388.41;;;26.20;39.26
7774;BME280;3931;42.260;23.116;2022-12-07T08:07:40;95390.84;;;26.42;38.97
7774;BME280;3931;42.260;23.116;2022-12-07T08:10:10;95387.63;;;25.37;39.30
7774;BME280;3931;42.260;23.116;2022-12-07T08:12:37;95382.38;;;26.23;39.10
7774;BME280;3931;42.260;23.116;2022-12-07T08:15:25;95381.16;;;27.70;37.62
7774;BME280;3931;42.260;23.116;2022-12-07T08:17:51;95383.53;;;27.59;36.42
7774;BME280;3931;42.260;23.116;2022-12-07T08:20:17;95376.72;;;26.36;37.37
7774;BME280;3931;42.260;23.116;2022-12-07T08:22:43;95370.63;;;28.12;36.54
7774;BME280;3931;42.260;23.116;2022-12-07T08:25:09;95370.00;;;27.72;36.48
7774;BME280;3931;42.260;23.116;2022-12-07T08:27:35;95377.16;;;27.19;36.87
7774;BME280;3931;42.260;23.116;2022-12-07T08:30:02;95371.25;;;28.46;36.00
7774;BME280;3931;42.260;23.116;2022-12-07T08:32:29;95370.81;;;28.14;35.85
7774;BME280;3931;42.260;23.116;2022-12-07T08:34:55;95365.13;;;28.14;36.38
7774;BME280;3931;42.260;23.116;2022-12-07T08:37:21;95357.94;;;27.12;36.94
7774;BME280;3931;42.260;23.116;2022-12-07T08:39:47;95363.16;;;27.34;36.32
7774;BME280;3931;42.260;23.116;2022-12-07T08:42:13;95360.91;;;27.53;36.18
7774;BME280;3931;42.260;23.116;2022-12-07T08:44:39;95369.84;;;27.57;36.58
7774;BME280;3931;42.260;23.116;2022-12-07T08:47:06;95363.81;;;27.27;36.53
7774;BME280;3931;42.260;23.116;2022-12-07T08:49:37;95366.22;;;27.36;37.18
7774;BME280;3931;42.260;23.116;2022-12-07T08:52:04;95361.13;;;28.58;35.45
7774;BME280;3931;42.260;23.116;2022-12-07T08:54:32;95362.81;;;28.12;35.50
7774;BME280;3931;42.260;23.116;2022-12-07T08:57:00;95354.81;;;27.02;36.87
7774;BME280;3931;42.260;23.116;2022-12-07T08:59:27;95354.03;;;25.91;38.33
7774;BME280;3931;42.260;23.116;2022-12-07T09:01:54;95342.94;;;25.93;38.69
7774;BME280;3931;42.260;23.116;2022-12-07T09:04:20;95349.38;;;26.91;38.01
7774;BME280;3931;42.260;23.116;2022-12-07T09:06:47;95340.09;;;27.24;36.51
7774;BME280;3931;42.260;23.116;2022-12-07T09:09:14;95341.63;;;27.25;37.12
7774;BME280;3931;42.260;23.116;2022-12-07T09:11:40;95327.41;;;27.59;36.44
7774;BME280;3931;42.260;23.116;2022-12-07T09:14:06;95328.09;;;28.35;35.58
7774;BME280;3931;42.260;23.116;2022-12-07T09:16:32;95328.13;;;28.63;35.59
7774;BME280;3931;42.260;23.116;2022-12-07T09:18:58;95326.88;;;27.27;36.54
7774;BME280;3931;42.260;23.116;2022-12-07T09:21:25;95325.88;;;26.25;37.82
7774;BME280;3931;42.260;23.116;2022-12-07T09:23:51;95319.97;;;27.90;36.55
7774;BME280;3931;42.260;23.116;2022-12-07T09:26:17;95311.97;;;28.09;35.44
7774;BME280;3931;42.260;23.116;2022-12-07T09:28:43;95317.09;;;27.49;36.79
7774;BME280;3931;42.260;23.116;2022-12-07T09:31:10;95308.56;;;27.90;36.36
7774;BME280;3931;42.260;23.116;2022-12-07T09:33:36;95306.19;;;27.39;37.06
7774;BME280;3931;42.260;23.116;2022-12-07T09:36:03;95297.53;;;27.86;36.51
7774;BME280;3931;42.260;23.116;2022-12-07T09:38:29;95293.38;;;27.46;36.82
7774;BME280;3931;42.260;23.116;2022-12-07T09:40:57;95293.50;;;27.82;36.28
7774;BME280;3931;42.260;23.116;2022-12-07T09:43:24;95294.00;;;28.42;36.00
7774;BME280;3931;42.260;23.116;2022-12-07T09:45:54;95285.78;;;29.03;35.34
7774;BME280;3931;42.260;23.116;2022-12-07T09:48:22;95287.84;;;28.95;34.97
7774;BME280;3931;42.260;23.116;2022-12-07T09:50:51;95275.91;;;28.32;36.08
7774;BME280;3931;42.260;23.116;2022-12-07T09:53:23;95278.38;;;25.86;37.99
7774;BME280;3931;42.260;23.116;2022-12-07T09:55:51;95273.28;;;26.37;37.99
7774;BME280;3931;42.260;23.116;2022-12-07T09:58:21;95263.72;;;24.69;40.16
7774;BME280;3931;42.260;23.116;2022-12-07T10:00:49;95257.53;;;24.70;40.13
7774;BME280;3931;42.260;23.116;2022-12-07T10:03:16;95251.81;;;24.94;39.90
7774;BME280;3931;42.260;23.116;2022-12-07T10:05:46;95251.47;;;23.99;40.82
7774;BME280;3931;42.260;23.116;2022-12-07T10:08:14;95254.03;;;23.73;40.54
7774;BME280;3931;42.260;23.116;2022-12-07T10:10:41;95258.44;;;23.09;41.48
7774;BME280;3931;42.260;23.116;2022-12-07T10:13:09;95254.69;;;23.84;41.36
7774;BME280;3931;42.260;23.116;2022-12-07T10:15:54;95258.34;;;24.04;40.22
7774;BME280;3931;42.260;23.116;2022-12-07T10:18:29;95250.91;;;22.87;41.92
7774;BME280;3931;42.260;23.116;2022-12-07T10:21:17;95246.28;;;21.64;43.13
7774;BME280;3931;42.260;23.116;2022-12-07T10:24:00;95247.31;;;21.55;43.31
7774;BME280;3931;42.260;23.116;2022-12-07T10:26:32;95256.28;;;21.59;43.23
7774;BME280;3931;42.260;23.116;2022-12-07T10:28:59;95234.19;;;21.97;42.85
7774;BME280;3931;42.260;23.116;2022-12-07T10:31:27;95228.56;;;21.86;43.32
7774;BME280;3931;42.260;23.116;2022-12-07T10:33:55;95231.69;;;21.71;43.88
7774;BME280;3931;42.260;23.116;2022-12-07T10:36:24;95238.03;;;21.94;43.28
7774;BME280;3931;42.260;23.116;2022-12-07T10:38:52;95217.88;;;22.36;42.41
7774;BME280;3931;42.260;23.116;2022-12-07T10:41:19;95227.69;;;22.18;42.79
7774;BME280;3931;42.260;23.116;2022-12-07T10:43:54;95220.13;;;21.91;42.50
7774;BME280;3931;42.260;23.116;2022-12-07T10:46:38;95223.91;;;22.05;42.81
7774;BME280;3931;42.260;23.116;2022-12-07T10:49:29;95226.53;;;21.69;43.12
7774;BME280;3931;42.260;23.116;2022-12-07T10:52:09;95228.88;;;21.71;42.60
7774;BME280;3931;42.260;23.116;2022-12-07T10:54:47;95227.81;;;21.91;42.44
7774;BME280;3931;42.260;23.116;2022-12-07T10:57:31;95242.69;;;21.63;42.89
7774;BME280;3931;42.260;23.116;2022-12-07T11:00:09;95238.34;;;21.68;43.13
7774;BME280;3931;42.260;23.116;2022-12-07T11:02:54;95228.16;;;22.28;42.79
7774;BME280;3931;42.260;23.116;2022-12-07T11:05:27;95217.81;;;22.47;42.18
7774;BME280;3931;42.260;23.116;2022-12-07T11:08:03;95213.59;;;20.83;44.06
7774;BME280;3931;42.260;23.116;2022-12-07T11:10:42;95218.03;;;22.03;43.26
7774;BME280;3931;42.260;23.116;2022-12-07T11:13:24;95213.53;;;21.50;43.57
7774;BME280;3931;42.260;23.116;2022-12-07T11:16:08;95212.00;;;21.60;43.52
7774;BME280;3931;42.260;23.116;2022-12-07T11:18:45;95215.63;;;20.66;44.57
7774;BME280;3931;42.260;23.116;2022-12-07T11:21:20;95197.13;;;21.65;43.51
7774;BME280;3931;42.260;23.116;2022-12-07T11:23:56;95177.03;;;22.07;42.88
7774;BME280;3931;42.260;23.116;2022-12-07T11:26:33;95173.94;;;22.11;42.79
7774;BME280;3931;42.260;23.116;2022-12-07T11:29:12;95186.91;;;21.62;42.80
7774;BME280;3931;42.260;23.116;2022-12-07T11:31:52;95179.81;;;21.28;42.71
7774;BME280;3931;42.260;23.116;2022-12-07T11:34:26;95173.34;;;21.49;43.50
7774;BME280;3931;42.260;23.116;2022-12-07T11:36:57;95188.28;;;20.83;43.88
7774;BME280;3931;42.260;23.116;2022-12-07T11:39:28;95156.53;;;21.33;43.75
7774;BME280;3931;42.260;23.116;2022-12-07T11:41:59;95164.00;;;21.08;44.25
7774;BME280;3931;42.260;23.116;2022-12-07T11:44:32;95154.53;;;20.89;44.34
7774;BME280;3931;42.260;23.116;2022-12-07T11:47:05;95161.94;;;21.09;43.53
7774;BME280;3931;42.260;23.116;2022-12-07T11:49:41;95138.91;;;21.21;44.16
7774;BME280;3931;42.260;23.116;2022-12-07T11:52:16;95141.22;;;21.17;43.96
7774;BME280;3931;42.260;23.116;2022-12-07T11:54:44;95159.38;;;20.83;44.19
7774;BME280;3931;42.260;23.116;2022-12-07T11:57:16;95136.56;;;21.42;43.56
7774;BME280;3931;42.260;23.116;2022-12-07T11:59:47;95151.97;;;21.13;44.07
7774;BME280;3931;42.260;23.116;2022-12-07T12:02:16;95135.16;;;21.70;43.36
7774;BME280;3931;42.260;23.116;2022-12-07T12:04:52;95136.34;;;21.97;42.87
7774;BME280;3931;42.260;23.116;2022-12-07T12:07:23;95134.28;;;21.98;43.29
7774;BME280;3931;42.260;23.116;2022-12-07T12:09:53;95144.81;;;20.90;44.31
7774;BME280;3931;42.260;23.116;2022-12-07T12:15:23;95143.25;;;20.33;46.20
7774;BME280;3931;42.260;23.116;2022-12-07T12:18:27;95131.00;;;20.86;45.78
7774;BME280;3931;42.260;23.116;2022-12-07T12:21:02;95126.41;;;20.89;45.45
7774;BME280;3931;42.260;23.116;2022-12-07T12:23:36;95127.66;;;21.21;44.45
7774;BME280;3931;42.260;23.116;2022-12-07T12:26:07;95120.03;;;20.77;45.21
7774;BME280;3931;42.260;23.116;2022-12-07T12:28:38;95110.53;;;21.08;44.89
7774;BME280;3931;42.260;23.116;2022-12-07T12:31:12;95113.06;;;21.28;44.07
7774;BME280;3931;42.260;23.116;2022-12-07T12:33:43;95100.03;;;21.20;45.08
7774;BME280;3931;42.260;23.116;2022-12-07T12:36:42;95104.47;;;21.61;43.74
7774;BME280;3931;42.260;23.116;2022-12-07T12:39:12;95119.72;;;21.03;44.04
7774;BME280;3931;42.260;23.116;2022-12-07T12:41:57;95102.63;;;21.07;44.40
7774;BME280;3931;42.260;23.116;2022-12-07T12:45:03;95107.72;;;21.08;43.62
7774;BME280;3931;42.260;23.116;2022-12-07T12:50:32;95090.22;;;21.43;42.96
7774;BME280;3931;42.260;23.116;2022-12-07T12:53:14;95086.13;;;22.36;41.87
7774;BME280;3931;42.260;23.116;2022-12-07T12:58:43;95079.50;;;22.34;42.41
7774;BME280;3931;42.260;23.116;2022-12-07T13:01:44;95089.16;;;22.44;41.77
7774;BME280;3931;42.260;23.116;2022-12-07T13:04:28;95083.59;;;21.40;42.73
7774;BME280;3931;42.260;23.116;2022-12-07T13:06:56;95083.81;;;21.48;43.13
7774;BME280;3931;42.260;23.116;2022-12-07T13:09:25;95093.88;;;21.27;43.78
7774;BME280;3931;42.260;23.116;2022-12-07T13:12:00;95083.88;;;21.31;44.11
7774;BME280;3931;42.260;23.116;2022-12-07T13:17:55;95076.50;;;21.80;43.70
7774;BME280;3931;42.260;23.116;2022-12-07T13:20:42;95069.38;;;21.73;43.65
7774;BME280;3931;42.260;23.116;2022-12-07T13:23:09;95076.47;;;21.86;43.52
7774;BME280;3931;42.260;23.116;2022-12-07T13:25:43;95067.28;;;21.79;43.18
7774;BME280;3931;42.260;23.116;2022-12-07T13:28:16;95063.66;;;21.27;44.19
7774;BME280;3931;42.260;23.116;2022-12-07T13:30:47;95067.81;;;21.10;44.52
7774;BME280;3931;42.260;23.116;2022-12-07T13:33:18;95068.13;;;20.78;45.26
7774;BME280;3931;42.260;23.116;2022-12-07T13:35:44;95082.72;;;20.66;45.97
7774;BME280;3931;42.260;23.116;2022-12-07T13:38:23;95087.06;;;20.33;46.21